This is the latest recevied weather packets stored in our database for station/object KB3UQE. If no packets are shown the sender has not sent any weather packets the latest 10 day(s).
| Time | Temp. | Humidity | Pressure | Rain* | Wind** | Luminosity | Snow |
|---|---|---|---|---|---|---|---|
| 1777234506 | 20° C | 47% | 1017.9 hPa | - | - | - | - |
| 1777234489 | 20° C | 47% | 1017.9 hPa | - | - | - | - |
| 1777232826 | 20.56° C | 46% | 1017.7 hPa | - | - | - | - |
| 1777232806 | 20.56° C | 46% | 1017.7 hPa | - | - | - | - |
| 1777231025 | 18.89° C | 47% | 1018.1 hPa | - | - | - | - |
| 1777231005 | 18.89° C | 47% | 1018.1 hPa | - | - | - | - |
| 1777229585 | 20° C | 45% | 1018.1 hPa | - | - | - | - |
| 1777229565 | 20° C | 45% | 1018.1 hPa | - | - | - | - |
| 1777228025 | 19.44° C | 45% | 1018.2 hPa | - | - | - | - |
| 1777227973 | 19.44° C | 45% | 1018.2 hPa | - | - | - | - |
| 1777226225 | 16.67° C | 48% | 1018.3 hPa | - | - | - | - |
| 1777226173 | 16.67° C | 48% | 1018.3 hPa | - | - | - | - |
| 1777224784 | 16.11° C | 49% | 1018.2 hPa | - | - | - | - |
| 1777224732 | 16.11° C | 49% | 1018.2 hPa | - | - | - | - |
| 1777222984 | 16.11° C | 48% | 1018.1 hPa | - | - | - | - |
| 1777222932 | 16.11° C | 48% | 1018.1 hPa | - | - | - | - |
| 1777221184 | 15.56° C | 49% | 1018.2 hPa | - | - | - | - |
| 1777221132 | 15.56° C | 49% | 1018.2 hPa | - | - | - | - |
| 1777219743 | 15° C | 49% | 1018.2 hPa | - | - | - | - |
| 1777219692 | 15° C | 49% | 1018.2 hPa | - | - | - | - |
| 1777218304 | 13.89° C | 51% | 1018.4 hPa | - | - | - | - |
| 1777218252 | 13.89° C | 51% | 1018.4 hPa | - | - | - | - |
| 1777216863 | 13.89° C | 50% | 1018.2 hPa | - | - | - | - |
| 1777216811 | 13.89° C | 50% | 1018.2 hPa | - | - | - | - |
| 1777215423 | 12.78° C | 52% | 1018.7 hPa | - | - | - | - |
* Rain since midnight (hover to see other rain measurements)
** Current wind speed in m/s (hover to see current wind gust speed)